sensor_id;sensor_type;location;lat;lon;timestamp;pressure;altitude;pressure_sealevel;temperature;humidity
35291;BME280;21411;50.024;19.220;2024-03-02T00:00:12;98283.90;;;7.33;100.00
35291;BME280;21411;50.024;19.220;2024-03-02T00:03:00;98284.92;;;7.31;100.00
35291;BME280;21411;50.024;19.220;2024-03-02T00:05:27;98280.70;;;7.28;100.00
35291;BME280;21411;50.024;19.220;2024-03-02T00:07:55;98284.41;;;7.25;100.00
35291;BME280;21411;50.024;19.220;2024-03-02T00:10:26;98287.78;;;7.22;100.00
35291;BME280;21411;50.024;19.220;2024-03-02T00:12:56;98287.27;;;7.19;100.00
35291;BME280;21411;50.024;19.220;2024-03-02T00:18:11;98290.22;;;7.14;100.00
35291;BME280;21411;50.024;19.220;2024-03-02T00:20:39;98288.46;;;7.12;100.00
35291;BME280;21411;50.024;19.220;2024-03-02T00:23:07;98289.15;;;7.09;100.00
35291;BME280;21411;50.024;19.220;2024-03-02T00:25:39;98286.16;;;7.06;100.00
35291;BME280;21411;50.024;19.220;2024-03-02T00:28:21;98284.39;;;7.04;100.00
35291;BME280;21411;50.024;19.220;2024-03-02T00:33:27;98288.29;;;7.00;100.00
35291;BME280;21411;50.024;19.220;2024-03-02T00:35:57;98287.18;;;7.01;100.00
35291;BME280;21411;50.024;19.220;2024-03-02T00:38:23;98287.70;;;7.01;100.00
35291;BME280;21411;50.024;19.220;2024-03-02T00:40:50;98286.35;;;7.03;100.00
35291;BME280;21411;50.024;19.220;2024-03-02T00:46:11;98283.97;;;7.08;100.00
35291;BME280;21411;50.024;19.220;2024-03-02T00:48:39;98284.52;;;7.10;100.00
35291;BME280;21411;50.024;19.220;2024-03-02T00:51:05;98288.55;;;7.13;100.00
35291;BME280;21411;50.024;19.220;2024-03-02T00:53:32;98284.23;;;7.14;100.00
35291;BME280;21411;50.024;19.220;2024-03-02T00:56:00;98280.41;;;7.16;100.00
35291;BME280;21411;50.024;19.220;2024-03-02T00:58:27;98281.67;;;7.18;100.00
35291;BME280;21411;50.024;19.220;2024-03-02T01:00:53;98283.82;;;7.21;100.00
35291;BME280;21411;50.024;19.220;2024-03-02T01:03:20;98284.95;;;7.22;100.00
35291;BME280;21411;50.024;19.220;2024-03-02T01:05:47;98283.95;;;7.24;100.00
35291;BME280;21411;50.024;19.220;2024-03-02T01:08:13;98279.42;;;7.26;100.00
35291;BME280;21411;50.024;19.220;2024-03-02T01:10:40;98278.40;;;7.28;100.00
35291;BME280;21411;50.024;19.220;2024-03-02T01:13:06;98274.36;;;7.30;100.00
35291;BME280;21411;50.024;19.220;2024-03-02T01:15:33;98269.52;;;7.31;100.00
35291;BME280;21411;50.024;19.220;2024-03-02T01:18:00;98266.25;;;7.33;100.00
35291;BME280;21411;50.024;19.220;2024-03-02T01:20:26;98262.13;;;7.34;100.00
35291;BME280;21411;50.024;19.220;2024-03-02T01:22:53;98262.58;;;7.35;100.00
35291;BME280;21411;50.024;19.220;2024-03-02T01:25:20;98259.55;;;7.35;100.00
35291;BME280;21411;50.024;19.220;2024-03-02T01:27:46;98255.65;;;7.36;100.00
35291;BME280;21411;50.024;19.220;2024-03-02T01:30:13;98254.59;;;7.36;100.00
35291;BME280;21411;50.024;19.220;2024-03-02T01:32:39;98254.11;;;7.34;100.00
35291;BME280;21411;50.024;19.220;2024-03-02T01:35:06;98250.59;;;7.34;100.00
35291;BME280;21411;50.024;19.220;2024-03-02T01:37:33;98245.52;;;7.34;100.00
35291;BME280;21411;50.024;19.220;2024-03-02T01:40:00;98246.22;;;7.34;100.00
35291;BME280;21411;50.024;19.220;2024-03-02T01:42:27;98242.92;;;7.33;100.00
35291;BME280;21411;50.024;19.220;2024-03-02T01:44:54;98245.10;;;7.32;100.00
35291;BME280;21411;50.024;19.220;2024-03-02T01:47:20;98245.84;;;7.32;100.00
35291;BME280;21411;50.024;19.220;2024-03-02T01:49:47;98244.16;;;7.30;100.00
35291;BME280;21411;50.024;19.220;2024-03-02T01:52:13;98240.48;;;7.30;100.00
35291;BME280;21411;50.024;19.220;2024-03-02T01:54:40;98239.23;;;7.30;100.00
35291;BME280;21411;50.024;19.220;2024-03-02T01:57:06;98234.10;;;7.30;100.00
35291;BME280;21411;50.024;19.220;2024-03-02T01:59:33;98232.17;;;7.29;100.00
35291;BME280;21411;50.024;19.220;2024-03-02T02:01:59;98229.58;;;7.29;100.00
35291;BME280;21411;50.024;19.220;2024-03-02T02:04:26;98236.30;;;7.29;100.00
35291;BME280;21411;50.024;19.220;2024-03-02T02:06:54;98241.14;;;7.28;100.00
35291;BME280;21411;50.024;19.220;2024-03-02T02:09:20;98241.73;;;7.26;100.00
35291;BME280;21411;50.024;19.220;2024-03-02T02:11:47;98242.65;;;7.26;100.00
35291;BME280;21411;50.024;19.220;2024-03-02T02:14:13;98247.44;;;7.25;100.00
35291;BME280;21411;50.024;19.220;2024-03-02T02:16:40;98245.20;;;7.25;100.00
35291;BME280;21411;50.024;19.220;2024-03-02T02:19:07;98239.13;;;7.23;100.00
35291;BME280;21411;50.024;19.220;2024-03-02T02:21:34;98238.16;;;7.22;100.00
35291;BME280;21411;50.024;19.220;2024-03-02T02:24:00;98243.54;;;7.21;100.00
35291;BME280;21411;50.024;19.220;2024-03-02T02:26:29;98245.80;;;7.18;100.00
35291;BME280;21411;50.024;19.220;2024-03-02T02:28:56;98243.05;;;7.17;100.00
35291;BME280;21411;50.024;19.220;2024-03-02T02:31:23;98238.86;;;7.16;100.00
35291;BME280;21411;50.024;19.220;2024-03-02T02:33:49;98234.33;;;7.16;100.00
35291;BME280;21411;50.024;19.220;2024-03-02T02:36:16;98234.14;;;7.16;100.00
35291;BME280;21411;50.024;19.220;2024-03-02T02:38:44;98238.96;;;7.15;100.00
35291;BME280;21411;50.024;19.220;2024-03-02T02:41:13;98234.89;;;7.15;100.00
35291;BME280;21411;50.024;19.220;2024-03-02T02:43:39;98233.86;;;7.15;100.00
35291;BME280;21411;50.024;19.220;2024-03-02T02:46:08;98239.40;;;7.16;100.00
35291;BME280;21411;50.024;19.220;2024-03-02T02:48:35;98241.27;;;7.18;100.00
35291;BME280;21411;50.024;19.220;2024-03-02T02:51:02;98238.23;;;7.18;100.00
35291;BME280;21411;50.024;19.220;2024-03-02T02:53:28;98238.94;;;7.18;100.00
35291;BME280;21411;50.024;19.220;2024-03-02T02:55:55;98241.24;;;7.18;100.00
35291;BME280;21411;50.024;19.220;2024-03-02T02:58:21;98244.44;;;7.18;100.00
35291;BME280;21411;50.024;19.220;2024-03-02T03:00:47;98240.24;;;7.17;100.00
35291;BME280;21411;50.024;19.220;2024-03-02T03:03:14;98245.23;;;7.16;100.00
35291;BME280;21411;50.024;19.220;2024-03-02T03:05:40;98237.39;;;7.15;100.00
35291;BME280;21411;50.024;19.220;2024-03-02T03:08:07;98237.50;;;7.13;100.00
35291;BME280;21411;50.024;19.220;2024-03-02T03:10:34;98242.52;;;7.12;100.00
35291;BME280;21411;50.024;19.220;2024-03-02T03:13:00;98242.75;;;7.11;100.00
35291;BME280;21411;50.024;19.220;2024-03-02T03:15:27;98240.45;;;7.11;100.00
35291;BME280;21411;50.024;19.220;2024-03-02T03:17:53;98243.06;;;7.12;100.00
35291;BME280;21411;50.024;19.220;2024-03-02T03:20:20;98245.11;;;7.13;100.00
35291;BME280;21411;50.024;19.220;2024-03-02T03:22:47;98247.15;;;7.14;100.00
35291;BME280;21411;50.024;19.220;2024-03-02T03:25:14;98246.38;;;7.15;100.00
35291;BME280;21411;50.024;19.220;2024-03-02T03:27:40;98252.52;;;7.16;100.00
35291;BME280;21411;50.024;19.220;2024-03-02T03:30:08;98254.00;;;7.17;100.00
35291;BME280;21411;50.024;19.220;2024-03-02T03:32:34;98253.56;;;7.18;100.00
35291;BME280;21411;50.024;19.220;2024-03-02T03:35:01;98252.98;;;7.20;100.00
35291;BME280;21411;50.024;19.220;2024-03-02T03:37:28;98252.17;;;7.21;100.00
35291;BME280;21411;50.024;19.220;2024-03-02T03:39:59;98251.61;;;7.22;100.00
35291;BME280;21411;50.024;19.220;2024-03-02T03:42:27;98247.50;;;7.22;100.00
35291;BME280;21411;50.024;19.220;2024-03-02T03:44:54;98241.84;;;7.22;100.00
35291;BME280;21411;50.024;19.220;2024-03-02T03:47:21;98237.77;;;7.22;100.00
35291;BME280;21411;50.024;19.220;2024-03-02T03:49:47;98230.60;;;7.21;100.00
35291;BME280;21411;50.024;19.220;2024-03-02T03:52:14;98225.23;;;7.20;100.00
35291;BME280;21411;50.024;19.220;2024-03-02T03:54:40;98223.81;;;7.17;100.00
35291;BME280;21411;50.024;19.220;2024-03-02T03:57:09;98227.75;;;7.14;100.00
35291;BME280;21411;50.024;19.220;2024-03-02T03:59:35;98229.77;;;7.10;100.00
35291;BME280;21411;50.024;19.220;2024-03-02T04:02:03;98228.09;;;7.09;100.00
35291;BME280;21411;50.024;19.220;2024-03-02T04:04:30;98225.61;;;7.06;100.00
35291;BME280;21411;50.024;19.220;2024-03-02T04:06:57;98223.26;;;7.04;100.00
35291;BME280;21411;50.024;19.220;2024-03-02T04:09:23;98224.26;;;7.02;100.00
35291;BME280;21411;50.024;19.220;2024-03-02T04:11:50;98225.39;;;7.01;100.00
35291;BME280;21411;50.024;19.220;2024-03-02T04:14:17;98226.66;;;7.00;100.00
35291;BME280;21411;50.024;19.220;2024-03-02T04:16:43;98228.81;;;7.00;100.00
35291;BME280;21411;50.024;19.220;2024-03-02T04:19:10;98230.98;;;6.99;100.00
35291;BME280;21411;50.024;19.220;2024-03-02T04:21:36;98232.30;;;6.98;100.00
35291;BME280;21411;50.024;19.220;2024-03-02T04:24:03;98228.21;;;6.96;100.00
35291;BME280;21411;50.024;19.220;2024-03-02T04:26:30;98232.45;;;6.93;100.00
35291;BME280;21411;50.024;19.220;2024-03-02T04:28:56;98232.43;;;6.90;100.00
35291;BME280;21411;50.024;19.220;2024-03-02T04:31:23;98231.38;;;6.87;100.00
35291;BME280;21411;50.024;19.220;2024-03-02T04:33:49;98231.55;;;6.85;100.00
35291;BME280;21411;50.024;19.220;2024-03-02T04:36:16;98240.52;;;6.80;100.00
35291;BME280;21411;50.024;19.220;2024-03-02T04:38:42;98243.54;;;6.74;100.00
35291;BME280;21411;50.024;19.220;2024-03-02T04:41:09;98242.45;;;6.69;100.00
35291;BME280;21411;50.024;19.220;2024-03-02T04:43:36;98240.64;;;6.64;100.00
35291;BME280;21411;50.024;19.220;2024-03-02T04:46:02;98242.55;;;6.59;100.00
35291;BME280;21411;50.024;19.220;2024-03-02T04:48:29;98243.23;;;6.53;100.00
35291;BME280;21411;50.024;19.220;2024-03-02T04:50:55;98243.04;;;6.48;100.00
35291;BME280;21411;50.024;19.220;2024-03-02T04:53:22;98240.84;;;6.44;100.00
35291;BME280;21411;50.024;19.220;2024-03-02T04:55:49;98240.08;;;6.39;100.00
35291;BME280;21411;50.024;19.220;2024-03-02T04:58:36;98243.95;;;6.34;100.00
35291;BME280;21411;50.024;19.220;2024-03-02T05:01:02;98249.31;;;6.29;100.00
35291;BME280;21411;50.024;19.220;2024-03-02T05:03:29;98250.11;;;6.25;100.00
35291;BME280;21411;50.024;19.220;2024-03-02T05:05:56;98249.48;;;6.21;100.00
35291;BME280;21411;50.024;19.220;2024-03-02T05:08:22;98255.64;;;6.18;100.00
35291;BME280;21411;50.024;19.220;2024-03-02T05:10:49;98257.38;;;6.16;100.00
35291;BME280;21411;50.024;19.220;2024-03-02T05:13:15;98258.92;;;6.13;100.00
35291;BME280;21411;50.024;19.220;2024-03-02T05:15:43;98258.84;;;6.12;100.00
35291;BME280;21411;50.024;19.220;2024-03-02T05:18:10;98263.05;;;6.09;100.00
35291;BME280;21411;50.024;19.220;2024-03-02T05:20:36;98264.23;;;6.07;100.00
35291;BME280;21411;50.024;19.220;2024-03-02T05:23:03;98266.08;;;6.06;100.00
35291;BME280;21411;50.024;19.220;2024-03-02T05:25:29;98264.61;;;6.04;100.00
35291;BME280;21411;50.024;19.220;2024-03-02T05:27:56;98265.20;;;6.03;100.00
35291;BME280;21411;50.024;19.220;2024-03-02T05:30:23;98269.51;;;6.02;100.00
35291;BME280;21411;50.024;19.220;2024-03-02T05:32:49;98272.23;;;6.01;100.00
35291;BME280;21411;50.024;19.220;2024-03-02T05:35:16;98270.11;;;6.01;100.00
35291;BME280;21411;50.024;19.220;2024-03-02T05:37:42;98271.81;;;6.02;100.00
35291;BME280;21411;50.024;19.220;2024-03-02T05:40:09;98274.77;;;6.02;100.00
35291;BME280;21411;50.024;19.220;2024-03-02T05:42:37;98276.09;;;6.04;100.00
35291;BME280;21411;50.024;19.220;2024-03-02T05:45:04;98277.34;;;6.06;100.00
35291;BME280;21411;50.024;19.220;2024-03-02T05:47:31;98283.28;;;6.10;100.00
35291;BME280;21411;50.024;19.220;2024-03-02T05:49:59;98286.80;;;6.13;100.00
35291;BME280;21411;50.024;19.220;2024-03-02T05:52:25;98284.98;;;6.18;100.00
35291;BME280;21411;50.024;19.220;2024-03-02T05:54:52;98281.42;;;6.21;100.00
35291;BME280;21411;50.024;19.220;2024-03-02T05:57:19;98284.34;;;6.25;100.00
35291;BME280;21411;50.024;19.220;2024-03-02T06:00:09;98287.42;;;6.29;100.00
35291;BME280;21411;50.024;19.220;2024-03-02T06:02:35;98290.91;;;6.33;100.00
35291;BME280;21411;50.024;19.220;2024-03-02T06:05:06;98289.48;;;6.36;100.00
35291;BME280;21411;50.024;19.220;2024-03-02T06:07:33;98293.69;;;6.40;100.00
35291;BME280;21411;50.024;19.220;2024-03-02T06:09:59;98296.08;;;6.44;100.00
35291;BME280;21411;50.024;19.220;2024-03-02T06:12:26;98296.02;;;6.47;100.00
35291;BME280;21411;50.024;19.220;2024-03-02T06:14:53;98293.65;;;6.52;100.00
35291;BME280;21411;50.024;19.220;2024-03-02T06:17:19;98292.81;;;6.56;100.00
35291;BME280;21411;50.024;19.220;2024-03-02T06:19:46;98292.88;;;6.61;100.00
35291;BME280;21411;50.024;19.220;2024-03-02T06:22:12;98297.63;;;6.67;100.00
35291;BME280;21411;50.024;19.220;2024-03-02T06:24:39;98297.23;;;6.73;100.00
35291;BME280;21411;50.024;19.220;2024-03-02T06:27:05;98297.58;;;6.79;100.00
35291;BME280;21411;50.024;19.220;2024-03-02T06:29:33;98298.32;;;6.84;100.00
35291;BME280;21411;50.024;19.220;2024-03-02T06:32:00;98294.98;;;6.90;100.00
35291;BME280;21411;50.024;19.220;2024-03-02T06:34:26;98291.23;;;6.96;100.00
35291;BME280;21411;50.024;19.220;2024-03-02T06:36:53;98289.45;;;7.02;100.00
35291;BME280;21411;50.024;19.220;2024-03-02T06:39:19;98291.44;;;7.07;100.00
35291;BME280;21411;50.024;19.220;2024-03-02T06:41:46;98290.34;;;7.13;100.00
35291;BME280;21411;50.024;19.220;2024-03-02T06:44:15;98290.00;;;7.18;100.00
35291;BME280;21411;50.024;19.220;2024-03-02T06:46:41;98293.35;;;7.23;100.00
35291;BME280;21411;50.024;19.220;2024-03-02T06:49:08;98295.34;;;7.31;100.00
35291;BME280;21411;50.024;19.220;2024-03-02T06:51:36;98296.85;;;7.37;100.00
35291;BME280;21411;50.024;19.220;2024-03-02T06:54:03;98297.65;;;7.42;100.00
35291;BME280;21411;50.024;19.220;2024-03-02T06:56:29;98296.31;;;7.46;100.00
35291;BME280;21411;50.024;19.220;2024-03-02T06:58:57;98292.95;;;7.52;100.00
35291;BME280;21411;50.024;19.220;2024-03-02T07:01:23;98294.48;;;7.55;100.00
35291;BME280;21411;50.024;19.220;2024-03-02T07:03:52;98295.86;;;7.61;100.00
35291;BME280;21411;50.024;19.220;2024-03-02T07:06:19;98300.63;;;7.69;100.00
35291;BME280;21411;50.024;19.220;2024-03-02T07:08:45;98299.95;;;7.77;100.00
35291;BME280;21411;50.024;19.220;2024-03-02T07:11:12;98306.50;;;7.82;100.00
35291;BME280;21411;50.024;19.220;2024-03-02T07:13:38;98311.26;;;7.90;100.00
35291;BME280;21411;50.024;19.220;2024-03-02T07:16:05;98315.51;;;7.98;100.00
35291;BME280;21411;50.024;19.220;2024-03-02T07:18:37;98318.28;;;8.04;100.00
35291;BME280;21411;50.024;19.220;2024-03-02T07:21:07;98317.60;;;8.09;100.00
35291;BME280;21411;50.024;19.220;2024-03-02T07:23:34;98318.33;;;8.17;100.00
35291;BME280;21411;50.024;19.220;2024-03-02T07:26:00;98320.83;;;8.21;100.00
35291;BME280;21411;50.024;19.220;2024-03-02T07:28:28;98326.66;;;8.24;100.00
35291;BME280;21411;50.024;19.220;2024-03-02T07:31:02;98328.57;;;8.27;100.00
35291;BME280;21411;50.024;19.220;2024-03-02T07:33:29;98327.02;;;8.34;100.00
35291;BME280;21411;50.024;19.220;2024-03-02T07:35:56;98328.55;;;8.43;100.00
35291;BME280;21411;50.024;19.220;2024-03-02T07:38:23;98328.89;;;8.51;100.00
35291;BME280;21411;50.024;19.220;2024-03-02T07:40:49;98325.89;;;8.61;100.00
35291;BME280;21411;50.024;19.220;2024-03-02T07:43:19;98324.45;;;8.72;100.00
35291;BME280;21411;50.024;19.220;2024-03-02T07:45:47;98322.66;;;8.85;100.00
35291;BME280;21411;50.024;19.220;2024-03-02T07:48:14;98326.19;;;8.97;100.00
35291;BME280;21411;50.024;19.220;2024-03-02T07:50:41;98326.73;;;9.10;100.00
35291;BME280;21411;50.024;19.220;2024-03-02T07:53:09;98330.33;;;9.16;100.00
35291;BME280;21411;50.024;19.220;2024-03-02T07:55:35;98335.64;;;9.19;100.00
35291;BME280;21411;50.024;19.220;2024-03-02T07:58:02;98337.51;;;9.25;100.00
35291;BME280;21411;50.024;19.220;2024-03-02T08:00:29;98335.08;;;9.32;100.00
35291;BME280;21411;50.024;19.220;2024-03-02T08:02:56;98340.70;;;9.37;100.00
35291;BME280;21411;50.024;19.220;2024-03-02T08:05:23;98341.33;;;9.43;100.00
35291;BME280;21411;50.024;19.220;2024-03-02T08:07:50;98342.80;;;9.50;100.00
35291;BME280;21411;50.024;19.220;2024-03-02T08:10:19;98345.06;;;9.55;100.00
35291;BME280;21411;50.024;19.220;2024-03-02T08:12:46;98342.66;;;9.61;100.00
35291;BME280;21411;50.024;19.220;2024-03-02T08:15:13;98340.14;;;9.69;100.00
35291;BME280;21411;50.024;19.220;2024-03-02T08:17:40;98344.30;;;9.73;100.00
35291;BME280;21411;50.024;19.220;2024-03-02T08:20:14;98342.30;;;9.74;100.00
35291;BME280;21411;50.024;19.220;2024-03-02T08:22:41;98345.15;;;9.71;100.00
35291;BME280;21411;50.024;19.220;2024-03-02T08:25:08;98342.48;;;9.69;100.00
35291;BME280;21411;50.024;19.220;2024-03-02T08:27:34;98344.63;;;9.68;100.00
35291;BME280;21411;50.024;19.220;2024-03-02T08:30:01;98347.60;;;9.64;100.00
35291;BME280;21411;50.024;19.220;2024-03-02T08:32:30;98343.77;;;9.61;100.00
35291;BME280;21411;50.024;19.220;2024-03-02T08:34:56;98344.31;;;9.61;100.00
35291;BME280;21411;50.024;19.220;2024-03-02T08:37:22;98348.19;;;9.61;100.00
35291;BME280;21411;50.024;19.220;2024-03-02T08:39:50;98349.59;;;9.61;100.00
35291;BME280;21411;50.024;19.220;2024-03-02T08:42:16;98349.23;;;9.59;100.00
35291;BME280;21411;50.024;19.220;2024-03-02T08:44:43;98352.27;;;9.51;100.00
35291;BME280;21411;50.024;19.220;2024-03-02T08:47:10;98352.50;;;9.46;100.00
35291;BME280;21411;50.024;19.220;2024-03-02T08:49:36;98352.05;;;9.42;100.00
35291;BME280;21411;50.024;19.220;2024-03-02T08:52:03;98352.42;;;9.37;100.00
35291;BME280;21411;50.024;19.220;2024-03-02T08:54:30;98357.37;;;9.32;100.00
35291;BME280;21411;50.024;19.220;2024-03-02T08:56:57;98360.98;;;9.29;100.00
35291;BME280;21411;50.024;19.220;2024-03-02T08:59:24;98361.41;;;9.28;100.00
35291;BME280;21411;50.024;19.220;2024-03-02T09:01:51;98365.23;;;9.24;100.00
35291;BME280;21411;50.024;19.220;2024-03-02T09:04:18;98367.00;;;9.21;100.00
35291;BME280;21411;50.024;19.220;2024-03-02T09:06:44;98365.80;;;9.23;100.00
35291;BME280;21411;50.024;19.220;2024-03-02T09:09:11;98367.70;;;9.29;100.00
35291;BME280;21411;50.024;19.220;2024-03-02T09:11:37;98371.55;;;9.35;100.00
35291;BME280;21411;50.024;19.220;2024-03-02T09:14:04;98369.96;;;9.39;100.00
35291;BME280;21411;50.024;19.220;2024-03-02T09:16:31;98374.34;;;9.40;100.00
35291;BME280;21411;50.024;19.220;2024-03-02T09:18:58;98376.54;;;9.47;100.00
35291;BME280;21411;50.024;19.220;2024-03-02T09:21:24;98374.13;;;9.51;100.00
35291;BME280;21411;50.024;19.220;2024-03-02T09:23:51;98376.09;;;9.55;100.00
35291;BME280;21411;50.024;19.220;2024-03-02T09:26:18;98376.39;;;9.58;100.00
35291;BME280;21411;50.024;19.220;2024-03-02T09:28:47;98376.75;;;9.63;100.00
35291;BME280;21411;50.024;19.220;2024-03-02T09:31:13;98374.92;;;9.69;100.00
35291;BME280;21411;50.024;19.220;2024-03-02T09:33:40;98376.05;;;9.71;100.00
35291;BME280;21411;50.024;19.220;2024-03-02T09:36:19;98375.44;;;9.72;100.00
35291;BME280;21411;50.024;19.220;2024-03-02T09:38:46;98376.73;;;9.74;100.00
35291;BME280;21411;50.024;19.220;2024-03-02T09:41:14;98384.47;;;9.72;100.00
35291;BME280;21411;50.024;19.220;2024-03-02T09:43:41;98385.55;;;9.77;100.00
35291;BME280;21411;50.024;19.220;2024-03-02T09:46:10;98387.81;;;9.80;100.00
35291;BME280;21411;50.024;19.220;2024-03-02T09:48:37;98393.09;;;9.78;100.00
35291;BME280;21411;50.024;19.220;2024-03-02T09:51:04;98397.83;;;9.76;100.00
35291;BME280;21411;50.024;19.220;2024-03-02T09:53:32;98406.42;;;9.75;100.00
35291;BME280;21411;50.024;19.220;2024-03-02T09:56:00;98412.67;;;9.72;100.00
35291;BME280;21411;50.024;19.220;2024-03-02T09:58:27;98414.60;;;9.72;100.00
35291;BME280;21411;50.024;19.220;2024-03-02T10:00:53;98416.30;;;9.71;100.00
35291;BME280;21411;50.024;19.220;2024-03-02T10:03:20;98414.46;;;9.66;100.00
35291;BME280;21411;50.024;19.220;2024-03-02T10:05:48;98412.05;;;9.63;100.00
35291;BME280;21411;50.024;19.220;2024-03-02T10:08:15;98413.52;;;9.60;100.00
35291;BME280;21411;50.024;19.220;2024-03-02T10:10:41;98419.04;;;9.57;100.00
35291;BME280;21411;50.024;19.220;2024-03-02T10:13:10;98414.27;;;9.59;100.00
35291;BME280;21411;50.024;19.220;2024-03-02T10:15:39;98411.04;;;9.60;100.00
35291;BME280;21411;50.024;19.220;2024-03-02T10:18:12;98410.31;;;9.60;100.00
35291;BME280;21411;50.024;19.220;2024-03-02T10:20:40;98411.21;;;9.62;100.00
35291;BME280;21411;50.024;19.220;2024-03-02T10:23:15;98410.54;;;9.62;100.00
35291;BME280;21411;50.024;19.220;2024-03-02T10:25:43;98413.29;;;9.63;100.00
35291;BME280;21411;50.024;19.220;2024-03-02T10:28:10;98412.72;;;9.66;100.00
35291;BME280;21411;50.024;19.220;2024-03-02T10:30:37;98413.16;;;9.72;100.00
35291;BME280;21411;50.024;19.220;2024-03-02T10:33:05;98410.00;;;9.77;100.00
35291;BME280;21411;50.024;19.220;2024-03-02T10:35:33;98407.42;;;9.83;100.00
35291;BME280;21411;50.024;19.220;2024-03-02T10:38:04;98406.52;;;9.88;100.00
35291;BME280;21411;50.024;19.220;2024-03-02T10:40:31;98402.42;;;9.93;100.00
35291;BME280;21411;50.024;19.220;2024-03-02T10:42:59;98403.85;;;9.95;100.00
35291;BME280;21411;50.024;19.220;2024-03-02T10:45:26;98401.30;;;9.98;100.00
35291;BME280;21411;50.024;19.220;2024-03-02T10:47:52;98400.91;;;10.04;100.00
35291;BME280;21411;50.024;19.220;2024-03-02T10:50:19;98401.62;;;10.08;100.00
35291;BME280;21411;50.024;19.220;2024-03-02T10:52:45;98397.02;;;10.13;100.00
35291;BME280;21411;50.024;19.220;2024-03-02T10:55:12;98394.89;;;10.16;100.00
35291;BME280;21411;50.024;19.220;2024-03-02T10:57:42;98393.88;;;10.20;100.00
35291;BME280;21411;50.024;19.220;2024-03-02T11:00:12;98393.79;;;10.28;100.00
35291;BME280;21411;50.024;19.220;2024-03-02T11:02:50;98391.70;;;10.37;100.00
35291;BME280;21411;50.024;19.220;2024-03-02T11:05:27;98390.61;;;10.47;100.00
35291;BME280;21411;50.024;19.220;2024-03-02T11:08:02;98391.48;;;10.54;100.00
35291;BME280;21411;50.024;19.220;2024-03-02T11:10:49;98388.95;;;10.64;100.00
35291;BME280;21411;50.024;19.220;2024-03-02T11:13:27;98385.31;;;10.72;100.00
35291;BME280;21411;50.024;19.220;2024-03-02T11:16:03;98386.68;;;10.78;100.00
35291;BME280;21411;50.024;19.220;2024-03-02T11:18:33;98382.62;;;10.80;100.00
35291;BME280;21411;50.024;19.220;2024-03-02T11:21:01;98381.02;;;10.82;100.00
35291;BME280;21411;50.024;19.220;2024-03-02T11:23:33;98379.55;;;10.87;100.00
35291;BME280;21411;50.024;19.220;2024-03-02T11:26:19;98378.02;;;10.95;100.00
35291;BME280;21411;50.024;19.220;2024-03-02T11:28:46;98375.07;;;11.01;100.00
35291;BME280;21411;50.024;19.220;2024-03-02T11:31:13;98374.45;;;11.07;100.00
35291;BME280;21411;50.024;19.220;2024-03-02T11:33:40;98370.77;;;11.12;100.00
35291;BME280;21411;50.024;19.220;2024-03-02T11:36:07;98367.02;;;11.15;100.00
35291;BME280;21411;50.024;19.220;2024-03-02T11:38:35;98369.10;;;11.15;100.00
35291;BME280;21411;50.024;19.220;2024-03-02T11:41:07;98362.36;;;11.18;100.00
35291;BME280;21411;50.024;19.220;2024-03-02T11:43:38;98367.27;;;11.21;100.00
35291;BME280;21411;50.024;19.220;2024-03-02T11:46:08;98362.96;;;11.23;100.00
35291;BME280;21411;50.024;19.220;2024-03-02T11:48:36;98362.16;;;11.27;100.00
35291;BME280;21411;50.024;19.220;2024-03-02T11:51:04;98364.10;;;11.34;100.00
35291;BME280;21411;50.024;19.220;2024-03-02T11:53:31;98365.60;;;11.42;100.00
35291;BME280;21411;50.024;19.220;2024-03-02T11:56:01;98364.67;;;11.49;100.00
35291;BME280;21411;50.024;19.220;2024-03-02T11:58:28;98363.88;;;11.56;100.00
35291;BME280;21411;50.024;19.220;2024-03-02T12:00:56;98365.14;;;11.63;100.00
35291;BME280;21411;50.024;19.220;2024-03-02T12:03:23;98365.48;;;11.70;100.00
35291;BME280;21411;50.024;19.220;2024-03-02T12:05:55;98363.49;;;11.78;100.00
35291;BME280;21411;50.024;19.220;2024-03-02T12:08:21;98360.55;;;11.87;100.00
35291;BME280;21411;50.024;19.220;2024-03-02T12:10:58;98360.74;;;11.93;100.00
35291;BME280;21411;50.024;19.220;2024-03-02T12:13:25;98361.52;;;12.01;100.00
35291;BME280;21411;50.024;19.220;2024-03-02T12:15:55;98362.10;;;12.07;100.00
35291;BME280;21411;50.024;19.220;2024-03-02T12:18:23;98362.13;;;12.06;100.00
35291;BME280;21411;50.024;19.220;2024-03-02T12:20:50;98362.64;;;12.04;100.00
35291;BME280;21411;50.024;19.220;2024-03-02T12:23:19;98357.34;;;12.02;100.00
35291;BME280;21411;50.024;19.220;2024-03-02T12:25:46;98352.90;;;11.99;100.00
35291;BME280;21411;50.024;19.220;2024-03-02T12:28:13;98348.23;;;11.96;100.00
35291;BME280;21411;50.024;19.220;2024-03-02T12:30:39;98348.77;;;11.92;100.00
35291;BME280;21411;50.024;19.220;2024-03-02T12:33:06;98350.91;;;11.87;100.00
35291;BME280;21411;50.024;19.220;2024-03-02T12:35:33;98348.54;;;11.83;100.00
35291;BME280;21411;50.024;19.220;2024-03-02T12:37:59;98353.46;;;11.77;100.00
35291;BME280;21411;50.024;19.220;2024-03-02T12:40:26;98349.54;;;11.73;100.00
35291;BME280;21411;50.024;19.220;2024-03-02T12:42:53;98351.65;;;11.69;100.00
35291;BME280;21411;50.024;19.220;2024-03-02T12:45:20;98354.09;;;11.63;100.00
35291;BME280;21411;50.024;19.220;2024-03-02T12:47:50;98356.81;;;11.56;100.00
35291;BME280;21411;50.024;19.220;2024-03-02T12:50:18;98356.27;;;11.45;100.00
35291;BME280;21411;50.024;19.220;2024-03-02T12:52:52;98351.73;;;11.37;100.00
35291;BME280;21411;50.024;19.220;2024-03-02T12:55:20;98351.16;;;11.33;100.00
35291;BME280;21411;50.024;19.220;2024-03-02T12:57:50;98349.42;;;11.30;100.00